.
WxDataArchive / Data Records for 2007-02-13
2007-02-12 February 2007 2007-02-14

Data Records for Tuesday, 13 February 2007

Time	Temp	Chill	HIndex	Humid	Dewpt	 Wind 	HiWind	WindDir	Rain 	Barom 
-----	----	-----	------	-----	-----	------	------	-------	-----	----- 
00:00	26.1	21.3	26.1	85	22.2	4	14	112	0.00	30.201 
00:05	26.0	18.3	26.0	85	22.1	7	17	112	0.00	30.196 
00:10	25.8	18.8	25.8	85	21.9	6	12	90	0.00	30.194 
00:15	25.8	18.0	25.8	85	21.9	7	15	112	0.00	30.195 
00:20	25.7	20.8	25.7	85	21.8	4	13	90	0.00	30.195 
00:25	25.6	18.6	25.6	85	21.7	6	15	112	0.00	30.197 
00:30	25.6	19.6	25.6	85	21.7	5	14	112	0.00	30.204 
00:35	25.3	18.3	25.3	85	21.4	6	15	112	0.00	30.203 
00:40	25.1	19.0	25.1	84	21.0	5	12	112	0.00	30.201 
00:45	24.8	16.8	24.8	83	20.4	7	16	112	0.00	30.198 
00:50	24.7	17.5	24.7	82	20.0	6	12	112	0.00	30.200 
00:55	24.5	18.3	24.5	81	19.5	5	14	112	0.00	30.199 
01:00	24.4	18.1	24.4	81	19.4	5	15	112	0.00	30.199 
01:05	24.4	16.3	24.4	81	19.4	7	15	112	0.00	30.200 
01:10	24.2	17.9	24.2	81	19.2	5	15	112	0.00	30.199 
01:15	24.2	17.9	24.2	80	18.9	5	10	112	0.00	30.197 
01:20	24.1	16.8	24.1	80	18.8	6	15	112	0.00	30.199 
01:25	23.9	16.6	23.9	80	18.6	6	13	112	0.00	30.196 
01:30	23.9	15.7	23.9	78	18.1	7	17	112	0.00	30.195 
01:35	23.8	15.6	23.8	78	18.0	7	18	112	0.00	30.196 
01:40	23.6	15.4	23.6	77	17.5	7	14	112	0.00	30.194 
01:45	23.6	15.4	23.6	77	17.5	7	12	112	0.00	30.188 
01:50	23.6	18.4	23.6	78	17.8	4	11	90	0.00	30.189 
01:55	23.5	16.1	23.5	78	17.7	6	16	112	0.00	30.187 
02:00	23.3	15.0	23.3	78	17.5	7	14	112	0.00	30.190 
02:05	23.3	18.0	23.3	78	17.5	4	10	90	0.00	30.192 
02:10	23.0	16.5	23.0	78	17.2	5	15	112	0.00	30.192 
02:15	22.9	15.4	22.9	79	17.4	6	13	112	0.00	30.194 
02:20	22.7	15.2	22.7	80	17.5	6	14	90	0.00	30.195 
02:25	22.4	14.8	22.4	81	17.5	6	11	112	0.00	30.196 
02:30	22.2	14.6	22.2	81	17.3	6	13	112	0.00	30.195 
02:35	22.1	14.4	22.1	82	17.5	6	13	112	0.00	30.195 
02:40	21.9	14.2	21.9	82	17.3	6	16	112	0.00	30.196 
02:45	21.8	15.1	21.8	83	17.4	5	17	112	0.00	30.196 
02:50	21.4	12.7	21.4	82	16.8	7	15	90	0.00	30.198 
02:55	21.1	12.4	21.1	82	16.5	7	14	112	0.00	30.195 
03:00	21.0	13.1	21.0	83	16.7	6	15	112	0.00	30.195 
03:05	20.6	11.8	20.6	83	16.3	7	15	112	0.00	30.193 
03:10	20.6	13.7	20.6	83	16.3	5	13	112	0.00	30.189 
03:15	20.3	12.3	20.3	83	16.0	6	13	112	0.00	30.189 
03:20	20.0	13.0	20.0	83	15.7	5	14	112	0.00	30.186 
03:25	19.7	12.6	19.7	83	15.4	5	13	90	0.00	30.187 
03:30	19.4	9.5	19.4	82	14.8	8	19	112	0.00	30.187 
03:35	19.4	12.3	19.4	82	14.8	5	14	112	0.00	30.186 
03:40	19.2	11.0	19.2	82	14.6	6	15	112	0.00	30.185 
03:45	19.1	13.2	19.1	82	14.5	4	14	90	0.00	30.185 
03:50	18.8	12.8	18.8	82	14.2	4	12	112	0.00	30.183 
03:55	18.4	12.4	18.4	82	13.8	4	13	90	0.00	30.182 
04:00	18.1	9.7	18.1	81	13.3	6	14	112	0.00	30.184 
04:05	18.0	9.6	18.0	81	13.2	6	19	112	0.00	30.184 
04:10	17.8	9.3	17.8	81	13.0	6	13	112	0.00	30.183 
04:15	17.5	9.0	17.5	81	12.7	6	16	112	0.00	30.180 
04:20	17.3	9.8	17.3	82	12.8	5	12	112	0.00	30.187 
04:25	17.2	9.7	17.2	82	12.7	5	12	112	0.00	30.184 
04:30	16.9	8.2	16.9	82	12.4	6	14	112	0.00	30.184 
04:35	16.9	9.3	16.9	83	12.6	5	14	112	0.00	30.185 
04:40	16.7	7.1	16.7	83	12.5	7	18	90	0.00	30.185 
04:45	16.5	7.8	16.5	83	12.3	6	16	90	0.00	30.186 
04:50	16.4	7.7	16.4	84	12.4	6	18	112	0.00	30.185 
04:55	16.4	6.7	16.4	84	12.4	7	16	112	0.00	30.182 
05:00	16.4	7.7	16.4	84	12.4	6	17	112	0.00	30.179 
05:05	16.4	6.7	16.4	84	12.4	7	20	112	0.00	30.177 
05:10	16.4	7.7	16.4	84	12.4	6	15	112	0.00	30.176 
05:15	16.2	9.8	16.2	84	12.2	4	17	90	0.00	30.175 
05:20	16.2	8.5	16.2	84	12.2	5	16	112	0.00	30.176 
05:25	16.1	9.7	16.1	84	12.1	4	12	90	0.00	30.179 
05:30	16.1	7.3	16.1	84	12.1	6	13	112	0.00	30.176 
05:35	16.1	8.4	16.1	84	12.1	5	14	112	0.00	30.178 
05:40	15.9	8.2	15.9	84	11.9	5	14	90	0.00	30.174 
05:45	15.7	5.9	15.7	84	11.7	7	18	112	0.00	30.175 
05:50	15.7	5.0	15.7	84	11.7	8	18	112	0.00	30.176 
05:55	15.7	7.9	15.7	84	11.7	5	14	112	0.00	30.175 
06:00	15.7	7.9	15.7	84	11.7	5	12	90	0.00	30.175 
06:05	15.6	7.8	15.6	84	11.6	5	16	112	0.00	30.178 
06:10	15.6	6.7	15.6	84	11.6	6	17	112	0.00	30.177 
06:15	15.4	8.9	15.4	84	11.4	4	13	112	0.00	30.181 
06:20	15.4	5.5	15.4	84	11.4	7	16	112	0.00	30.182 
06:25	15.4	6.5	15.4	84	11.4	6	15	112	0.00	30.180 
06:30	15.4	7.6	15.4	84	11.4	5	14	90	0.00	30.182 
06:35	15.2	6.2	15.2	84	11.3	6	16	112	0.00	30.177 
06:40	15.2	5.3	15.2	84	11.3	7	16	112	0.00	30.178 
06:45	15.1	7.2	15.1	84	11.2	5	15	112	0.00	30.176 
06:50	15.1	7.2	15.1	84	11.2	5	15	112	0.00	30.175 
06:55	15.1	7.2	15.1	84	11.2	5	11	112	0.00	30.174 
07:00	15.1	6.1	15.1	84	11.2	6	13	90	0.00	30.175 
07:05	14.9	8.3	14.9	84	11.0	4	10	112	0.00	30.174 
07:10	15.1	7.2	15.1	84	11.2	5	13	90	0.00	30.173 
07:15	14.9	7.0	14.9	84	11.0	5	13	112	0.00	30.175 
07:20	14.9	8.3	14.9	84	11.0	4	13	112	0.00	30.174 
07:25	14.9	5.9	14.9	84	11.0	6	18	112	0.00	30.173 
07:30	14.8	6.9	14.8	84	10.9	5	13	112	0.00	30.174 
07:35	14.8	8.2	14.8	84	10.9	4	14	112	0.00	30.175 
07:40	14.8	8.2	14.8	84	10.9	4	11	112	0.00	30.174 
07:45	14.6	5.5	14.6	84	10.7	6	13	112	0.00	30.172 
07:50	14.6	6.6	14.6	84	10.7	5	11	112	0.00	30.172 
07:55	14.6	5.5	14.6	84	10.7	6	19	112	0.00	30.168 
08:00	14.6	6.6	14.6	84	10.7	5	13	112	0.00	30.166 
08:05	14.6	3.7	14.6	84	10.7	8	19	112	0.00	30.163 
08:10	14.6	6.6	14.6	84	10.7	5	13	90	0.00	30.162 
08:15	14.6	8.0	14.6	84	10.7	4	13	112	0.00	30.160 
08:20	14.4	5.3	14.4	83	10.2	6	15	112	0.00	30.159 
08:25	14.4	5.3	14.4	83	10.2	6	15	112	0.00	30.161 
08:30	14.4	7.7	14.4	83	10.2	4	11	45	0.00	30.161 
08:35	14.3	6.3	14.3	83	10.1	5	15	112	0.00	30.160 
08:40	14.3	6.3	14.3	83	10.1	5	14	112	0.00	30.157 
08:45	14.3	5.2	14.3	83	10.1	6	20	90	0.00	30.150 
08:50	14.1	3.0	14.1	83	9.9	8	20	112	0.00	30.148 
08:55	14.3	6.3	14.3	83	10.1	5	14	45	0.00	30.146 
09:00	14.3	5.2	14.3	83	10.1	6	13	112	0.00	30.146 
09:05	14.3	5.2	14.3	83	10.1	6	14	112	0.00	30.146 
09:10	14.1	4.9	14.1	83	9.9	6	13	112	0.00	30.144 
09:15	14.3	6.3	14.3	83	10.1	5	17	112	0.00	30.143 
09:20	14.3	5.2	14.3	83	10.1	6	16	112	0.00	30.142 
09:25	14.3	7.6	14.3	83	10.1	4	10	90	0.00	30.140 
09:30	14.3	4.2	14.3	83	10.1	7	16	112	0.00	30.138 
09:35	14.3	4.2	14.3	83	10.1	7	17	112	0.00	30.136 
09:40	14.3	6.3	14.3	83	10.1	5	15	112	0.00	30.134 
09:45	14.3	5.2	14.3	83	10.1	6	16	112	0.00	30.133 
09:50	14.3	6.3	14.3	83	10.1	5	13	112	0.00	30.132 
09:55	14.3	5.2	14.3	83	10.1	6	17	112	0.00	30.129 
10:00	14.3	4.2	14.3	83	10.1	7	18	112	0.00	30.129 
10:05	14.4	6.4	14.4	83	10.2	5	10	112	0.00	30.131 
10:10	14.4	6.4	14.4	83	10.2	5	13	112	0.00	30.131 
10:15	14.6	6.6	14.6	83	10.4	5	15	112	0.00	30.129 
10:20	14.4	5.3	14.4	83	10.2	6	14	112	0.00	30.132 
10:25	14.6	6.6	14.6	83	10.4	5	18	90	0.00	30.129 
10:30	14.6	5.5	14.6	83	10.4	6	18	112	0.00	30.130 
10:35	14.6	5.5	14.6	83	10.4	6	15	90	0.00	30.129 
10:40	14.4	5.3	14.4	83	10.2	6	19	112	0.00	30.127 
10:45	14.6	6.6	14.6	83	10.4	5	17	112	0.00	30.128 
10:50	14.6	5.5	14.6	83	10.4	6	14	112	0.00	30.125 
10:55	14.6	8.0	14.6	83	10.4	4	11	68	0.00	30.123 
11:00	14.4	5.3	14.4	83	10.2	6	16	112	0.00	30.122 
11:05	14.4	5.3	14.4	83	10.2	6	13	112	0.00	30.119 
11:10	14.4	5.3	14.4	84	10.5	6	13	45	0.00	30.117 
11:15	14.4	5.3	14.4	83	10.2	6	16	112	0.00	30.115 
11:20	14.4	5.3	14.4	83	10.2	6	16	112	0.00	30.115 
11:25	14.6	6.6	14.6	83	10.4	5	13	112	0.00	30.111 
11:30	14.6	6.6	14.6	83	10.4	5	15	112	0.00	30.110 
11:35	14.6	6.6	14.6	83	10.4	5	17	112	0.00	30.109 
11:40	14.6	4.5	14.6	83	10.4	7	15	112	0.00	30.107 
11:45	14.6	5.5	14.6	83	10.4	6	26	90	0.00	30.104 
11:50	14.6	6.6	14.6	83	10.4	5	15	112	0.00	30.101 
11:55	14.6	5.5	14.6	82	10.1	6	17	90	0.00	30.100 
12:00	14.6	6.6	14.6	82	10.1	5	13	112	0.00	30.100 
12:05	14.4	4.3	14.4	82	9.9	7	19	112	0.00	30.102 
12:10	14.6	6.6	14.6	83	10.4	5	14	112	0.00	30.100 
12:15	14.6	5.5	14.6	83	10.4	6	16	112	0.00	30.098 
12:20	14.6	6.6	14.6	82	10.1	5	14	112	0.00	30.088 
12:25	14.6	5.5	14.6	82	10.1	6	16	112	0.00	30.086 
12:30	14.6	6.6	14.6	82	10.1	5	16	112	0.00	30.082 
12:35	14.6	4.5	14.6	82	10.1	7	16	90	0.00	30.077 
12:40	14.6	5.5	14.6	82	10.1	6	16	112	0.00	30.071 
12:45	14.8	4.8	14.8	82	10.3	7	17	90	0.00	30.067 
12:50	14.8	6.9	14.8	81	10.0	5	13	112	0.00	30.061 
12:55	14.8	6.9	14.8	81	10.0	5	12	22	0.00	30.056 
13:00	14.8	5.7	14.8	81	10.0	6	18	112	0.00	30.054 
13:05	14.9	7.0	14.9	81	10.1	5	15	90	0.00	30.048 
13:10	14.9	5.9	14.9	81	10.1	6	16	90	0.00	30.043 
13:15	14.9	8.3	14.9	81	10.1	4	12	45	0.00	30.038 
13:20	14.9	5.9	14.9	81	10.1	6	16	112	0.00	30.037 
13:25	14.9	7.0	14.9	81	10.1	5	12	112	0.00	30.030 
13:30	14.8	4.8	14.8	81	10.0	7	16	112	0.00	30.030 
13:35	14.8	3.9	14.8	81	10.0	8	19	112	0.00	30.027 
13:40	14.8	5.7	14.8	81	10.0	6	14	45	0.00	30.025 
13:45	14.8	6.9	14.8	81	10.0	5	16	112	0.00	30.021 
13:50	14.6	4.5	14.6	81	9.9	7	20	112	0.00	30.016 
13:55	14.6	4.5	14.6	81	9.9	7	17	112	0.00	30.015 
14:00	14.4	5.3	14.4	82	9.9	6	14	22	0.00	30.009 
14:05	14.4	5.3	14.4	82	9.9	6	15	45	0.00	30.007 
14:10	14.4	6.4	14.4	82	9.9	5	13	45	0.00	30.004 
14:15	14.4	5.3	14.4	82	9.9	6	16	90	0.00	29.998 
14:20	14.4	6.4	14.4	82	9.9	5	15	45	0.00	29.995 
14:25	14.4	6.4	14.4	82	9.9	5	17	45	0.00	29.995 
14:30	14.3	4.2	14.3	82	9.8	7	16	22	0.00	29.992 
14:35	14.3	6.3	14.3	82	9.8	5	14	45	0.00	29.986 
14:40	14.3	5.2	14.3	82	9.8	6	16	112	0.00	29.983 
14:45	14.3	6.3	14.3	83	10.1	5	11	45	0.00	29.980 
14:50	14.3	6.3	14.3	83	10.1	5	13	45	0.00	29.980 
14:55	14.3	5.2	14.3	83	10.1	6	15	112	0.00	29.978 
15:00	14.3	4.2	14.3	83	10.1	7	18	112	0.00	29.970 
15:05	14.3	6.3	14.3	83	10.1	5	16	112	0.00	29.967 
15:10	14.3	6.3	14.3	84	10.4	5	14	90	0.00	29.966 
15:15	14.3	7.6	14.3	84	10.4	4	14	45	0.00	29.960 
15:20	14.3	6.3	14.3	84	10.4	5	20	112	0.00	29.954 
15:25	14.1	6.1	14.1	84	10.2	5	11	45	0.00	29.953 
15:30	14.3	6.3	14.3	84	10.4	5	15	45	0.00	29.950 
15:35	14.3	5.2	14.3	84	10.4	6	18	112	0.00	29.950 
15:40	14.1	6.1	14.1	84	10.2	5	15	112	0.00	29.949 
15:45	14.1	6.1	14.1	83	9.9	5	12	112	0.00	29.946 
15:50	14.0	2.9	14.0	83	9.8	8	22	112	0.00	29.943 
15:55	14.0	3.8	14.0	83	9.8	7	22	22	0.00	29.941 
16:00	14.0	7.3	14.0	84	10.1	4	15	45	0.00	29.938 
16:05	14.1	4.9	14.1	83	9.9	6	16	112	0.00	29.940 
16:10	14.1	6.1	14.1	83	9.9	5	17	112	0.00	29.940 
16:15	14.1	6.1	14.1	83	9.9	5	15	112	0.00	29.939 
16:20	14.1	4.9	14.1	83	9.9	6	15	22	0.00	29.939 
16:25	14.1	4.9	14.1	83	9.9	6	23	112	0.00	29.936 
16:30	14.1	6.1	14.1	83	9.9	5	12	112	0.00	29.935 
16:35	14.0	4.8	14.0	83	9.8	6	19	45	0.00	29.935 
16:40	14.1	7.4	14.1	84	10.2	4	10	45	0.00	29.936 
16:45	14.1	7.4	14.1	84	10.2	4	13	112	0.00	29.937 
16:50	14.0	5.9	14.0	83	9.8	5	13	112	0.00	29.937 
16:55	14.0	4.8	14.0	83	9.8	6	15	22	0.00	29.937 
17:00	13.8	7.1	13.8	83	9.6	4	12	90	0.00	29.937 
17:05	13.8	7.1	13.8	84	9.9	4	13	68	0.00	29.937 
17:10	13.8	7.1	13.8	84	9.9	4	11	112	0.00	29.938 
17:15	13.6	6.8	13.6	84	9.7	4	10	22	0.00	29.937 
17:20	13.6	6.8	13.6	84	9.7	4	13	45	0.00	29.936 
17:25	13.6	4.3	13.6	84	9.7	6	19	22	0.00	29.935 
17:30	13.5	5.3	13.5	84	9.6	5	13	112	0.00	29.935 
17:35	13.3	6.5	13.3	84	9.4	4	11	112	0.00	29.932 
17:40	13.3	5.1	13.3	84	9.4	5	13	45	0.00	29.925 
17:45	13.3	5.1	13.3	84	9.4	5	12	112	0.00	29.926 
17:50	13.3	5.1	13.3	84	9.4	5	14	112	0.00	29.924 
17:55	13.1	3.7	13.1	84	9.2	6	15	112	0.00	29.922 
18:00	13.1	6.2	13.1	84	9.2	4	12	22	0.00	29.922 
18:05	13.1	6.2	13.1	84	9.2	4	12	112	0.00	29.923 
18:10	13.1	4.9	13.1	84	9.2	5	14	112	0.00	29.921 
18:15	13.1	2.7	13.1	83	8.9	7	20	112	0.00	29.923 
18:20	13.1	2.7	13.1	83	8.9	7	17	112	0.00	29.921 
18:25	13.1	3.7	13.1	83	8.9	6	18	45	0.00	29.921 
18:30	13.1	3.7	13.1	83	8.9	6	16	90	0.00	29.920 
18:35	13.1	4.9	13.1	83	8.9	5	13	90	0.00	29.919 
18:40	13.1	3.7	13.1	83	8.9	6	15	112	0.00	29.919 
18:45	13.1	3.7	13.1	83	8.9	6	13	45	0.00	29.920 
18:50	13.1	4.9	13.1	84	9.2	5	17	45	0.00	29.919 
18:55	13.1	4.9	13.1	83	8.9	5	15	45	0.00	29.919 
19:00	13.1	6.2	13.1	84	9.2	4	13	45	0.00	29.922 
19:05	13.1	4.9	13.1	83	8.9	5	11	90	0.00	29.920 
19:10	13.1	6.2	13.1	83	8.9	4	11	22	0.00	29.922 
19:15	13.1	6.2	13.1	83	8.9	4	14	68	0.00	29.924 
19:20	13.1	4.9	13.1	83	8.9	5	14	45	0.00	29.927 
19:25	12.9	4.6	12.9	83	8.7	5	13	22	0.00	29.927 
19:30	12.9	6.0	12.9	83	8.7	4	11	68	0.00	29.930 
19:35	12.9	6.0	12.9	83	8.7	4	13	45	0.00	29.932 
19:40	12.9	12.9	12.9	83	8.7	3	12	45	0.00	29.930 
19:45	12.9	6.0	12.9	83	8.7	4	15	68	0.00	29.928 
19:50	12.9	4.6	12.9	83	8.7	5	14	45	0.00	29.929 
19:55	12.9	6.0	12.9	83	8.7	4	13	68	0.00	29.926 
20:00	12.9	6.0	12.9	84	9.0	4	13	68	0.00	29.924 
20:05	12.9	6.0	12.9	83	8.7	4	11	68	0.00	29.929 
20:10	12.9	12.9	12.9	84	9.0	3	12	22	0.00	29.930 
20:15	12.9	12.9	12.9	84	9.0	3	10	68	0.00	29.937 
20:20	12.9	12.9	12.9	84	9.0	3	11	68	0.00	29.937 
20:25	12.9	12.9	12.9	84	9.0	3	11	112	0.00	29.935 
20:30	12.9	12.9	12.9	84	9.0	3	11	90	0.00	29.937 
20:35	12.9	12.9	12.9	84	9.0	3	9	68	0.00	29.936 
20:40	12.9	6.0	12.9	84	9.0	4	13	68	0.00	29.935 
20:45	12.9	12.9	12.9	84	9.0	3	11	112	0.00	29.934 
20:50	12.9	12.9	12.9	83	8.7	3	9	45	0.00	29.933 
20:55	12.9	12.9	12.9	84	9.0	3	15	45	0.00	29.930 
21:00	12.8	12.8	12.8	84	8.9	2	7	68	0.00	29.929 
21:05	12.8	12.8	12.8	83	8.6	3	12	112	0.00	29.928 
21:10	12.8	12.8	12.8	84	8.9	2	7	90	0.00	29.927 
21:15	12.8	12.8	12.8	84	8.9	2	11	68	0.00	29.931 
21:20	12.8	12.8	12.8	83	8.6	2	7	22	0.00	29.931 
21:25	12.6	12.6	12.6	83	8.4	2	7	45	0.00	29.928 
21:30	12.6	12.6	12.6	83	8.4	3	9	45	0.00	29.927 
21:35	12.6	5.7	12.6	83	8.4	4	11	112	0.00	29.927 
21:40	12.6	12.6	12.6	83	8.4	3	12	22	0.00	29.924 
21:45	12.4	12.4	12.4	82	8.0	3	10	45	0.00	29.925 
21:50	12.4	12.4	12.4	83	8.2	2	10	135	0.00	29.925 
21:55	12.4	12.4	12.4	83	8.2	2	6	112	0.00	29.926 
22:00	12.4	12.4	12.4	83	8.2	1	10	0	0.00	29.930 
22:05	12.4	12.4	12.4	83	8.2	1	5	90	0.00	29.933 
22:10	12.4	12.4	12.4	83	8.2	2	10	90	0.00	29.929 
22:15	12.4	12.4	12.4	83	8.2	3	7	68	0.00	29.933 
22:20	12.4	12.4	12.4	83	8.2	1	5	68	0.00	29.936 
22:25	12.3	12.3	12.3	83	8.1	3	9	45	0.00	29.935 
22:30	12.3	12.3	12.3	83	8.1	3	13	45	0.00	29.935 
22:35	12.3	12.3	12.3	83	8.1	3	9	112	0.00	29.937 
22:40	12.1	12.1	12.1	83	7.9	3	10	112	0.00	29.930 
22:45	12.1	12.1	12.1	83	7.9	2	9	22	0.00	29.927 
22:50	12.1	12.1	12.1	83	7.9	2	11	22	0.00	29.930 
22:55	12.1	12.1	12.1	83	7.9	2	9	90	0.00	29.934 
23:00	12.1	12.1	12.1	83	7.9	2	8	0	0.00	29.929 
23:05	12.1	12.1	12.1	83	7.9	3	7	112	0.00	29.932 
23:10	12.1	12.1	12.1	83	7.9	1	3	45	0.00	29.930 
23:15	12.1	12.1	12.1	83	7.9	2	6	22	0.00	29.935 
23:20	12.1	12.1	12.1	83	7.9	1	9	0	0.00	29.936 
23:25	12.1	12.1	12.1	83	7.9	2	6	22	0.00	29.931 
23:30	11.9	11.9	11.9	83	7.8	2	5	0	0.00	29.929 
23:35	11.9	11.9	11.9	83	7.8	2	10	22	0.00	29.929 
23:40	11.9	11.9	11.9	83	7.8	3	10	0	0.00	29.930 
23:45	11.7	11.7	11.7	83	7.6	2	6	45	0.00	29.928 
23:50	11.7	11.7	11.7	83	7.6	1	9	22	0.00	29.931 
23:55	11.7	11.7	11.7	83	7.6	2	11	45	0.00	29.937 

CoCoRaHS
IN-AL-39
A2 Web Hosting
Creative Commons License
GoDaddy
Look for:

loaded 2017-12-12 07:14:43 • last modified 2010-11-18 10:43:29
Privacy PolicyDisclaimer
• wx.awcolley.com is powered by PmWiki v.2002016 •
• all content (unless otherwise noted) © 2017 A W Colley